Adrian, Minnesota
Current Conditions -  °F | °C
As of 4:34 AM on Wednesday 22 Oct 2014 (Local Time) from KLYV Reporting Station
Broken Clouds Broken Clouds  
Wind Chill: 54°   Ceiling: 7000
Heat Index: 54°   Visibility: 10mi
Dew Point: 43°   Wind: 14mph
Humidity: 67%   Direction: 160°SSE
Pressure: 30.04"   Gusts: 20mph
Location:  43.63°N, 95.93°W
Report Text: KLYV 220934Z AUTO 16012G17KT 10SM BKN070 12/06 A3004 RMK AO2
Loading
Personal Weather Stations






























Interactive Weather Map
Tropical Storm Tracking
New forecast layout! Learn more

10-Day Weather Forecast

Advertisements
Track Severe Weather on mobile